Terminal Aerodrome Forecast
Issued by NWS Kansas City/Pleasant Hill, MO

Home | Current Version | Previous Version | Text Only | Print | Product List | Glossary On
Versions: 1 2 3 4 5 6 7 8 9 10 11 12 13 14 15 16 17 18 19 20 21 22 23 24 25
000
FTUS43 KEAX 222300
TAFMCI
TAF
KMCI 222320Z 2300/2324 19014KT P6SM OVC020
     FM230600 18013KT 4SM -DZ BR OVC015
     FM231100 17011KT 2SM -RA BR OVC005
     FM231700 18010KT 3SM -SHRA BR OVC020
     FM232000 33015G25KT 5SM -RA OVC020=

USA.gov is the U.S. government's official web portal to all federal, state and local government web resources and services.